createdAt,value
2019-03-26T00:01:44.867Z,129.03
2019-03-26T00:04:15.120Z,130.03
2019-03-26T00:06:45.306Z,130.93
2019-03-26T00:09:15.572Z,129.50
2019-03-26T00:11:45.830Z,131.47
2019-03-26T00:14:16.007Z,130.83
2019-03-26T00:16:46.187Z,132.40
2019-03-26T00:19:16.374Z,135.40
2019-03-26T00:21:46.551Z,129.87
2019-03-26T00:24:16.751Z,141.87
2019-03-26T00:26:46.947Z,139.73
2019-03-26T00:29:17.127Z,135.57
2019-03-26T00:31:47.315Z,138.13
2019-03-26T00:34:19.528Z,138.73
2019-03-26T00:36:49.392Z,137.83
2019-03-26T00:39:19.562Z,140.27
2019-03-26T00:41:49.755Z,141.33
2019-03-26T00:44:19.929Z,138.27
2019-03-26T00:46:50.396Z,140.20
2019-03-26T00:49:20.575Z,138.00
2019-03-26T00:51:50.762Z,138.77
2019-03-26T00:54:21.004Z,139.33
2019-03-26T00:56:51.407Z,138.10
2019-03-26T00:59:21.582Z,138.03
2019-03-26T01:01:51.774Z,137.80
2019-03-26T01:04:32.046Z,137.63
2019-03-26T01:06:53.854Z,139.73
2019-03-26T01:09:24.046Z,141.83
2019-03-26T01:11:54.230Z,137.50
2019-03-26T01:14:24.416Z,138.10
2019-03-26T01:16:54.606Z,140.50
2019-03-26T01:19:24.778Z,139.13
2019-03-26T01:21:54.962Z,139.00
2019-03-26T01:24:25.154Z,139.07
2019-03-26T01:26:55.416Z,141.27
2019-03-26T01:29:25.672Z,137.97
2019-03-26T01:31:55.867Z,138.67
2019-03-26T01:34:26.051Z,137.80
2019-03-26T01:36:57.415Z,139.23
2019-03-26T01:39:27.594Z,139.63
2019-03-26T01:41:57.787Z,134.97
2019-03-26T01:44:27.970Z,140.20
2019-03-26T01:46:58.163Z,139.93
2019-03-26T01:49:28.339Z,135.27
2019-03-26T01:51:58.527Z,143.03
2019-03-26T01:54:28.702Z,134.30
2019-03-26T01:56:58.891Z,138.70
2019-03-26T01:59:29.078Z,135.37
2019-03-26T02:01:59.267Z,129.97
2019-03-26T02:04:29.447Z,129.30
2019-03-26T02:06:59.816Z,130.13
2019-03-26T02:09:30.015Z,129.87
2019-03-26T02:12:00.498Z,131.33
2019-03-26T02:14:30.685Z,127.67
2019-03-26T02:17:02.048Z,131.37
2019-03-26T02:19:33.376Z,127.90
2019-03-26T02:22:03.702Z,128.50
2019-03-26T02:24:33.879Z,128.77
2019-03-26T02:27:04.906Z,132.10
2019-03-26T02:29:35.086Z,129.60
2019-03-26T02:32:05.310Z,128.60
2019-03-26T02:34:35.488Z,129.57
2019-03-26T02:37:05.691Z,128.03
2019-03-26T02:39:35.870Z,127.23
2019-03-26T02:42:06.079Z,126.77
2019-03-26T02:44:36.260Z,127.63
2019-03-26T02:47:06.471Z,129.17
2019-03-26T02:49:36.643Z,126.00
2019-03-26T02:52:06.862Z,126.27
2019-03-26T02:54:37.035Z,125.93
2019-03-26T02:57:07.224Z,126.00
2019-03-26T02:59:37.404Z,126.47
2019-03-26T03:02:07.598Z,127.40
2019-03-26T03:04:37.784Z,128.23
2019-03-26T03:07:07.976Z,126.50
2019-03-26T03:09:38.165Z,127.90
2019-03-26T03:12:08.356Z,130.93
2019-03-26T03:14:38.541Z,129.50
2019-03-26T03:17:08.739Z,129.20
2019-03-26T03:19:38.920Z,127.83
2019-03-26T03:22:09.184Z,129.13
2019-03-26T03:24:39.363Z,127.30
2019-03-26T03:27:09.817Z,125.90
2019-03-26T03:29:40.000Z,125.73
2019-03-26T03:32:10.285Z,126.43
2019-03-26T03:34:40.600Z,128.33
2019-03-26T03:37:10.787Z,126.43
2019-03-26T03:39:41.031Z,130.50
2019-03-26T03:42:11.236Z,127.63
2019-03-26T03:44:41.513Z,127.13
2019-03-26T03:47:13.804Z,126.93
2019-03-26T03:49:44.214Z,124.97
2019-03-26T03:52:15.359Z,126.70
2019-03-26T03:54:46.119Z,126.70
2019-03-26T03:57:17.944Z,128.50
2019-03-26T03:59:48.366Z,126.33
2019-03-26T04:02:18.652Z,126.50
2019-03-26T04:04:48.836Z,126.03
2019-03-26T04:07:19.019Z,125.70
2019-03-26T04:09:49.203Z,126.90
2019-03-26T04:12:19.391Z,129.73
2019-03-26T04:14:49.566Z,128.60
2019-03-26T04:17:19.755Z,127.47
2019-03-26T04:19:49.941Z,128.43
2019-03-26T04:22:20.119Z,126.67
2019-03-26T04:24:50.299Z,126.83
2019-03-26T04:27:20.534Z,129.37
2019-03-26T04:29:50.719Z,125.63
2019-03-26T04:32:20.917Z,126.13
2019-03-26T04:34:51.106Z,125.70
2019-03-26T04:37:21.302Z,126.40
2019-03-26T04:39:51.482Z,127.53
2019-03-26T04:42:21.667Z,126.40
2019-03-26T04:44:51.855Z,127.30
2019-03-26T04:47:22.042Z,127.80
2019-03-26T04:49:52.219Z,128.93
2019-03-26T04:52:22.407Z,129.50
2019-03-26T04:54:53.440Z,131.03
2019-03-26T04:57:23.634Z,135.23
2019-03-26T04:59:53.812Z,131.27
2019-03-26T05:02:24.004Z,129.13
2019-03-26T05:04:54.178Z,129.83
2019-03-26T05:07:24.370Z,131.07
2019-03-26T05:09:54.571Z,129.47
2019-03-26T05:12:24.751Z,133.53
2019-03-26T05:14:54.926Z,133.70
2019-03-26T05:17:25.106Z,131.33
2019-03-26T05:19:55.287Z,130.73
2019-03-26T05:22:25.511Z,134.17
2019-03-26T05:24:55.691Z,130.90
2019-03-26T05:27:25.882Z,132.77
2019-03-26T05:29:56.248Z,131.67
2019-03-26T05:32:26.429Z,131.20
2019-03-26T05:34:56.608Z,130.37
2019-03-26T05:37:27.710Z,131.93
2019-03-26T05:39:57.895Z,128.50
2019-03-26T05:42:28.075Z,130.40
2019-03-26T05:44:59.326Z,136.17
2019-03-26T05:47:30.585Z,130.50
2019-03-26T05:50:00.770Z,131.80
2019-03-26T05:52:30.951Z,129.47
2019-03-26T05:55:01.143Z,130.20
2019-03-26T05:57:31.327Z,129.70
2019-03-26T06:00:01.510Z,133.03
2019-03-26T06:02:31.698Z,133.40
2019-03-26T06:05:01.880Z,129.30
2019-03-26T06:07:32.071Z,129.20
2019-03-26T06:10:02.369Z,131.73
2019-03-26T06:12:32.613Z,134.87
2019-03-26T06:15:02.891Z,132.83
2019-03-26T06:17:33.075Z,134.33
2019-03-26T06:20:03.255Z,133.73
2019-03-26T06:22:33.536Z,130.97
2019-03-26T06:25:03.884Z,131.83
2019-03-26T06:27:34.066Z,140.20
2019-03-26T06:30:04.783Z,133.10
2019-03-26T06:32:34.975Z,132.77
2019-03-26T06:35:06.227Z,136.57
2019-03-26T06:37:36.411Z,136.70
2019-03-26T06:40:08.284Z,131.23
2019-03-26T06:42:38.481Z,132.57
2019-03-26T06:45:10.927Z,133.03
2019-03-26T06:47:41.116Z,132.97
2019-03-26T06:50:12.003Z,134.83
2019-03-26T06:52:42.272Z,134.27
2019-03-26T06:55:13.195Z,134.17
2019-03-26T06:57:43.389Z,136.93
2019-03-26T07:00:14.747Z,135.37
2019-03-26T07:02:45.206Z,144.27
2019-03-26T07:05:15.550Z,140.33
2019-03-26T07:07:46.731Z,138.70
2019-03-26T07:10:20.204Z,142.00
2019-03-26T07:12:50.394Z,138.30
2019-03-26T07:15:20.571Z,138.57
2019-03-26T07:17:52.420Z,138.33
2019-03-26T07:20:22.905Z,132.17
2019-03-26T07:22:53.170Z,135.87
2019-03-26T07:25:23.430Z,135.57
2019-03-26T07:27:53.699Z,135.53
2019-03-26T07:30:37.414Z,131.67
2019-03-26T07:33:07.762Z,137.10
2019-03-26T07:35:39.170Z,130.90
2019-03-26T07:38:09.436Z,136.67
2019-03-26T07:40:39.815Z,140.30
2019-03-26T07:43:10.097Z,136.87
2019-03-26T07:45:40.349Z,137.00
2019-03-26T07:48:10.534Z,126.37
2019-03-26T07:50:40.804Z,130.67
2019-03-26T07:53:10.994Z,130.13
2019-03-26T07:55:43.767Z,131.83
2019-03-26T07:58:13.133Z,139.80
2019-03-26T08:00:43.308Z,135.90
2019-03-26T08:03:13.500Z,144.30
2019-03-26T08:05:43.680Z,142.03
2019-03-26T08:08:13.881Z,136.63
2019-03-26T08:10:44.187Z,138.37
2019-03-26T08:13:14.759Z,135.27
2019-03-26T08:15:46.014Z,132.47
2019-03-26T08:18:16.399Z,131.30
2019-03-26T08:20:46.685Z,142.63
2019-03-26T08:23:16.957Z,138.97
2019-03-26T08:25:47.129Z,139.87
2019-03-26T08:28:17.334Z,135.87
2019-03-26T08:30:50.027Z,134.97
2019-03-26T08:33:19.394Z,141.37
2019-03-26T08:35:49.576Z,136.30
2019-03-26T08:38:19.772Z,132.60
2019-03-26T08:40:49.951Z,139.37
2019-03-26T08:43:20.143Z,133.23
2019-03-26T08:45:50.390Z,132.23
2019-03-26T08:48:20.586Z,134.43
2019-03-26T08:50:51.743Z,138.43
2019-03-26T08:53:23.095Z,139.80
2019-03-26T08:55:53.287Z,130.53
2019-03-26T08:58:23.475Z,133.17
2019-03-26T09:00:53.654Z,130.50
2019-03-26T09:03:23.855Z,130.20
2019-03-26T09:05:54.051Z,131.90
2019-03-26T09:08:25.608Z,129.63
2019-03-26T09:10:56.038Z,127.33
2019-03-26T09:13:26.226Z,132.07
2019-03-26T09:15:56.486Z,136.27
2019-03-26T09:18:26.670Z,128.37
2019-03-26T09:20:56.844Z,126.60
2019-03-26T09:23:27.022Z,132.97
2019-03-26T09:25:57.285Z,128.70
2019-03-26T09:28:27.514Z,134.77
2019-03-26T09:30:58.658Z,125.40
2019-03-26T09:33:28.834Z,129.20
2019-03-26T09:35:59.010Z,128.97
2019-03-26T09:38:38.916Z,127.60
2019-03-26T09:41:01.188Z,128.60
2019-03-26T09:43:31.375Z,128.53
2019-03-26T09:46:01.683Z,130.80
2019-03-26T09:48:31.869Z,131.03
2019-03-26T09:51:02.049Z,129.23
2019-03-26T09:53:32.228Z,130.17
2019-03-26T09:56:02.484Z,131.00
2019-03-26T09:58:32.667Z,131.97
2019-03-26T10:01:03.038Z,125.13
2019-03-26T10:03:33.227Z,127.87
2019-03-26T10:06:03.490Z,128.43
2019-03-26T10:08:33.858Z,133.97
2019-03-26T10:11:04.044Z,136.57
2019-03-26T10:13:38.185Z,127.43
2019-03-26T10:16:13.859Z,130.13
2019-03-26T10:18:44.059Z,128.67
2019-03-26T10:21:14.237Z,126.83
2019-03-26T10:23:44.511Z,128.53
2019-03-26T10:26:14.711Z,130.37
2019-03-26T10:28:45.002Z,128.77
2019-03-26T10:31:17.339Z,128.73
2019-03-26T10:33:47.563Z,132.17
2019-03-26T10:36:18.019Z,129.30
2019-03-26T10:38:48.240Z,130.13
2019-03-26T10:41:18.764Z,131.30
2019-03-26T10:43:49.840Z,129.77
2019-03-26T10:46:20.019Z,129.53
2019-03-26T10:48:50.218Z,131.47
2019-03-26T10:51:20.434Z,137.10
2019-03-26T10:53:50.622Z,135.63
2019-03-26T10:56:21.040Z,134.13
2019-03-26T10:58:51.227Z,130.03
2019-03-26T11:01:21.483Z,133.90
2019-03-26T11:03:51.666Z,129.50
2019-03-26T11:06:21.999Z,130.80
2019-03-26T11:08:52.186Z,134.23
2019-03-26T11:11:22.375Z,133.93
2019-03-26T11:13:52.590Z,145.30
2019-03-26T11:16:22.920Z,142.63
2019-03-26T11:18:53.107Z,136.77
2019-03-26T11:21:23.406Z,136.23
2019-03-26T11:23:53.590Z,138.57
2019-03-26T11:26:23.846Z,139.63
2019-03-26T11:28:54.079Z,136.30
2019-03-26T11:31:24.367Z,138.00
2019-03-26T11:33:54.651Z,138.30
2019-03-26T11:36:24.899Z,135.67
2019-03-26T11:38:55.174Z,140.80
2019-03-26T11:41:25.361Z,136.73
2019-03-26T11:43:55.634Z,136.10
2019-03-26T11:46:25.863Z,140.60
2019-03-26T11:48:56.055Z,134.60
2019-03-26T11:51:26.283Z,139.43
2019-03-26T11:53:56.471Z,138.20
2019-03-26T11:56:26.651Z,138.73
2019-03-26T11:58:56.846Z,139.07
2019-03-26T12:01:27.102Z,140.23
2019-03-26T12:03:57.368Z,137.50
2019-03-26T12:06:27.539Z,138.17
2019-03-26T12:08:57.738Z,138.03
2019-03-26T12:11:27.926Z,129.27
2019-03-26T12:13:58.156Z,130.87
2019-03-26T12:16:28.326Z,127.87
2019-03-26T12:18:58.670Z,125.77
2019-03-26T12:21:28.898Z,130.07
2019-03-26T12:23:59.078Z,129.33
2019-03-26T12:26:29.259Z,128.20
2019-03-26T12:28:59.530Z,127.43
2019-03-26T12:31:29.724Z,126.17
2019-03-26T12:33:59.987Z,128.43
2019-03-26T12:36:39.730Z,129.77
2019-03-26T12:39:02.049Z,129.50
2019-03-26T12:41:33.596Z,127.33
2019-03-26T12:44:03.861Z,127.70
2019-03-26T12:46:34.107Z,126.70
2019-03-26T12:49:04.307Z,128.00
2019-03-26T12:51:34.491Z,131.27
2019-03-26T12:54:04.906Z,128.50
2019-03-26T12:56:35.161Z,130.03
2019-03-26T12:59:05.342Z,128.07
2019-03-26T13:01:35.813Z,131.90
2019-03-26T13:04:12.436Z,127.83
2019-03-26T13:06:38.038Z,130.13
2019-03-26T13:09:09.702Z,128.50
2019-03-26T13:11:39.962Z,129.80
2019-03-26T13:14:10.246Z,132.27
2019-03-26T13:16:40.422Z,133.53
2019-03-26T13:19:10.706Z,130.70
2019-03-26T13:21:40.879Z,132.87
2019-03-26T13:24:11.596Z,131.13
2019-03-26T13:26:42.125Z,133.67
2019-03-26T13:29:12.306Z,131.30
2019-03-26T13:31:42.494Z,132.00
2019-03-26T13:34:12.682Z,134.03
2019-03-26T13:36:42.866Z,128.80
2019-03-26T13:39:13.087Z,131.50
2019-03-26T13:41:43.282Z,130.37
2019-03-26T13:44:13.479Z,130.90
2019-03-26T13:46:44.712Z,135.17
2019-03-26T13:49:15.091Z,131.50
2019-03-26T13:51:45.280Z,131.50
2019-03-26T13:54:15.470Z,130.67
2019-03-26T13:56:45.651Z,129.27
2019-03-26T13:59:15.831Z,129.00
2019-03-26T14:01:46.036Z,129.47
2019-03-26T14:04:16.295Z,132.57
2019-03-26T14:06:46.499Z,132.60
2019-03-26T14:09:16.730Z,130.77
2019-03-26T14:11:46.906Z,132.27
2019-03-26T14:14:17.103Z,131.00
2019-03-26T14:16:47.290Z,132.50
2019-03-26T14:19:17.558Z,134.07
2019-03-26T14:21:47.822Z,135.13
2019-03-26T14:24:18.011Z,135.17
2019-03-26T14:26:48.363Z,134.23
2019-03-26T14:29:18.551Z,140.33
2019-03-26T14:31:48.727Z,139.20
2019-03-26T14:34:18.919Z,136.93
2019-03-26T14:36:49.104Z,141.53
2019-03-26T14:39:19.560Z,137.87
2019-03-26T14:41:49.743Z,126.47
2019-03-26T14:44:19.935Z,126.63
2019-03-26T14:46:50.115Z,129.83
2019-03-26T14:49:20.295Z,129.10
2019-03-26T14:51:50.476Z,127.27
2019-03-26T14:54:20.686Z,127.40
2019-03-26T14:56:50.862Z,128.63
2019-03-26T14:59:22.261Z,127.67
2019-03-26T15:01:52.491Z,130.80
2019-03-26T15:04:22.677Z,137.97
2019-03-26T15:06:52.854Z,139.53
2019-03-26T15:09:23.139Z,136.30
2019-03-26T15:11:53.315Z,141.43
2019-03-26T15:14:23.508Z,138.77
2019-03-26T15:16:53.770Z,134.63
2019-03-26T15:19:24.039Z,135.93
2019-03-26T15:21:54.221Z,128.57
2019-03-26T15:24:24.411Z,129.43
2019-03-26T15:26:54.592Z,135.23
2019-03-26T15:29:24.780Z,131.73
2019-03-26T15:31:54.965Z,130.23
2019-03-26T15:34:35.589Z,131.57
2019-03-26T15:36:57.030Z,133.50
2019-03-26T15:39:27.266Z,130.03
2019-03-26T15:41:57.446Z,130.90
2019-03-26T15:44:27.630Z,130.37
2019-03-26T15:46:57.807Z,132.90
2019-03-26T15:49:27.990Z,126.53
2019-03-26T15:51:58.258Z,127.43
2019-03-26T15:54:28.454Z,126.80
2019-03-26T15:56:58.625Z,127.70
2019-03-26T15:59:28.803Z,127.47
2019-03-26T16:01:58.983Z,127.83
2019-03-26T16:04:29.184Z,125.87
2019-03-26T16:06:59.363Z,128.00
2019-03-26T16:09:29.643Z,129.43
2019-03-26T16:11:59.899Z,131.80
2019-03-26T16:14:30.443Z,133.33
2019-03-26T16:17:00.622Z,127.80
2019-03-26T16:19:32.756Z,131.70
2019-03-26T16:22:02.860Z,134.13
2019-03-26T16:24:33.048Z,139.43
2019-03-26T16:27:03.282Z,139.67
2019-03-26T16:29:33.487Z,142.93
2019-03-26T16:32:03.673Z,142.57
2019-03-26T16:34:33.852Z,137.83
2019-03-26T16:37:04.122Z,139.20
2019-03-26T16:39:35.274Z,138.40
2019-03-26T16:42:05.456Z,133.33
2019-03-26T16:44:35.728Z,129.97
2019-03-26T16:47:05.986Z,126.57
2019-03-26T16:49:36.177Z,128.40
2019-03-26T16:52:06.542Z,128.73
2019-03-26T16:54:36.799Z,128.50
2019-03-26T16:57:07.001Z,134.87
2019-03-26T16:59:37.579Z,132.50
2019-03-26T17:02:07.857Z,127.67
2019-03-26T17:04:38.055Z,128.80
2019-03-26T17:07:08.235Z,143.33
2019-03-26T17:09:38.466Z,135.90
2019-03-26T17:12:08.667Z,128.47
2019-03-26T17:14:39.263Z,134.77
2019-03-26T17:17:09.527Z,128.37
2019-03-26T17:19:39.987Z,130.33
2019-03-26T17:22:10.170Z,134.17
2019-03-26T17:24:40.352Z,132.27
2019-03-26T17:27:10.532Z,132.47
2019-03-26T17:29:40.748Z,144.67
2019-03-26T17:32:10.987Z,136.67
2019-03-26T17:34:41.187Z,138.57
2019-03-26T17:37:11.367Z,137.37
2019-03-26T17:39:41.555Z,139.30
2019-03-26T17:42:17.349Z,131.50
2019-03-26T17:44:43.650Z,142.77
2019-03-26T17:47:13.931Z,138.40
2019-03-26T17:49:44.110Z,134.50
2019-03-26T17:52:14.293Z,135.20
2019-03-26T17:54:44.500Z,139.13
2019-03-26T17:57:15.890Z,135.73
2019-03-26T17:59:46.089Z,138.30
2019-03-26T18:02:16.340Z,139.80
2019-03-26T18:04:46.617Z,135.27
2019-03-26T18:07:16.807Z,136.93
2019-03-26T18:09:46.999Z,135.47
2019-03-26T18:12:29.961Z,133.13
2019-03-26T18:14:49.156Z,137.63
2019-03-26T18:17:19.339Z,139.27
2019-03-26T18:19:49.799Z,134.90
2019-03-26T18:22:20.016Z,136.93
2019-03-26T18:24:50.275Z,141.30
2019-03-26T18:27:20.446Z,136.93
2019-03-26T18:29:50.679Z,140.07
2019-03-26T18:32:20.871Z,136.53
2019-03-26T18:34:51.054Z,138.63
2019-03-26T18:37:21.337Z,140.40
2019-03-26T18:39:51.530Z,136.33
2019-03-26T18:42:21.739Z,137.07
2019-03-26T18:44:52.122Z,139.10
2019-03-26T18:47:22.382Z,143.93
2019-03-26T18:49:52.574Z,136.03
2019-03-26T18:52:22.819Z,141.47
2019-03-26T18:54:53.013Z,135.23
2019-03-26T18:57:23.282Z,133.23
2019-03-26T18:59:53.539Z,137.10
2019-03-26T19:02:23.726Z,131.87
2019-03-26T19:04:53.921Z,132.60
2019-03-26T19:07:24.244Z,129.73
2019-03-26T19:09:54.448Z,133.33
2019-03-26T19:12:24.673Z,131.33
2019-03-26T19:14:54.863Z,131.10
2019-03-26T19:17:25.103Z,128.57
2019-03-26T19:19:58.282Z,129.13
2019-03-26T19:22:27.174Z,129.47
2019-03-26T19:24:57.754Z,135.57
2019-03-26T19:27:27.940Z,132.17
2019-03-26T19:30:02.932Z,131.63
2019-03-26T19:32:33.979Z,134.97
2019-03-26T19:35:09.237Z,130.07
2019-03-26T19:37:41.543Z,128.23
2019-03-26T19:40:11.940Z,130.43
2019-03-26T19:42:42.142Z,129.27
2019-03-26T19:45:12.802Z,127.63
2019-03-26T19:47:43.141Z,130.43
2019-03-26T19:50:14.145Z,126.67
2019-03-26T19:52:44.403Z,127.70
2019-03-26T19:55:14.750Z,129.67
2019-03-26T19:57:44.918Z,128.00
2019-03-26T20:00:17.162Z,131.57
2019-03-26T20:02:47.417Z,130.70
2019-03-26T20:05:17.687Z,127.30
2019-03-26T20:07:47.919Z,126.30
2019-03-26T20:10:20.044Z,130.67
2019-03-26T20:12:50.310Z,126.13
2019-03-26T20:15:20.961Z,127.93
2019-03-26T20:17:51.145Z,133.87
2019-03-26T20:20:22.044Z,127.83
2019-03-26T20:22:52.322Z,129.17
2019-03-26T20:25:22.521Z,132.83
2019-03-26T20:27:52.791Z,146.13
2019-03-26T20:30:23.355Z,127.90
2019-03-26T20:32:53.570Z,128.70
2019-03-26T20:35:23.763Z,128.60
2019-03-26T20:37:53.944Z,127.77
2019-03-26T20:40:24.154Z,129.13
2019-03-26T20:42:54.364Z,127.73
2019-03-26T20:45:24.563Z,133.47
2019-03-26T20:47:54.742Z,130.33
2019-03-26T20:50:25.078Z,133.30
2019-03-26T20:52:55.406Z,129.47
2019-03-26T20:55:33.283Z,131.73
2019-03-26T20:58:03.991Z,130.53
2019-03-26T21:00:41.852Z,126.97
2019-03-26T21:03:12.108Z,134.13
2019-03-26T21:05:42.453Z,136.07
2019-03-26T21:08:12.744Z,143.33
2019-03-26T21:10:42.943Z,140.73
2019-03-26T21:13:13.319Z,136.90
2019-03-26T21:15:56.705Z,131.83
2019-03-26T21:18:18.571Z,137.77
2019-03-26T21:20:48.770Z,135.70
2019-03-26T21:23:18.946Z,126.63
2019-03-26T21:25:49.130Z,130.90
2019-03-26T21:28:19.331Z,125.77
2019-03-26T21:30:49.519Z,125.93
2019-03-26T21:33:19.698Z,127.00
2019-03-26T21:35:49.884Z,125.63
2019-03-26T21:38:20.079Z,126.13
2019-03-26T21:40:50.291Z,126.87
2019-03-26T21:43:20.471Z,125.33
2019-03-26T21:45:50.663Z,129.10
2019-03-26T21:48:20.842Z,131.00
2019-03-26T21:50:51.126Z,125.23
2019-03-26T21:53:21.302Z,124.83
2019-03-26T21:55:51.495Z,126.17
2019-03-26T21:58:21.676Z,127.50
2019-03-26T22:00:51.867Z,128.27
2019-03-26T22:03:22.299Z,125.40
2019-03-26T22:05:52.494Z,123.97
2019-03-26T22:08:22.688Z,125.93
2019-03-26T22:10:52.879Z,137.97
2019-03-26T22:13:23.062Z,127.97
2019-03-26T22:15:53.252Z,124.30
2019-03-26T22:18:23.451Z,125.13
2019-03-26T22:20:53.864Z,124.60
2019-03-26T22:23:24.051Z,130.60
2019-03-26T22:25:54.259Z,127.93
2019-03-26T22:28:24.530Z,128.83
2019-03-26T22:30:54.714Z,136.13
2019-03-26T22:33:24.890Z,132.40
2019-03-26T22:35:56.168Z,130.03
2019-03-26T22:38:26.649Z,131.43
2019-03-26T22:40:56.847Z,127.07
2019-03-26T22:43:27.031Z,126.20
2019-03-26T22:45:57.218Z,129.27
2019-03-26T22:48:27.471Z,128.87
2019-03-26T22:50:57.674Z,128.23
2019-03-26T22:53:27.943Z,126.13
2019-03-26T22:55:58.302Z,132.70
2019-03-26T22:58:28.484Z,130.07
2019-03-26T23:00:59.013Z,133.07
2019-03-26T23:03:30.416Z,131.00
2019-03-26T23:06:00.707Z,129.77
2019-03-26T23:08:30.902Z,131.50
2019-03-26T23:11:01.382Z,133.90
2019-03-26T23:13:31.732Z,134.47
2019-03-26T23:16:02.086Z,129.00
2019-03-26T23:18:32.266Z,126.93
2019-03-26T23:21:02.549Z,133.47
2019-03-26T23:23:32.734Z,130.60
2019-03-26T23:26:02.911Z,140.27
2019-03-26T23:28:33.106Z,136.37
2019-03-26T23:31:03.659Z,138.03
2019-03-26T23:33:33.842Z,144.87
2019-03-26T23:36:05.418Z,132.37
2019-03-26T23:38:35.666Z,143.63
2019-03-26T23:41:05.939Z,137.63
2019-03-26T23:43:37.203Z,138.30
2019-03-26T23:46:07.501Z,136.73
2019-03-26T23:48:37.685Z,132.37
2019-03-26T23:51:07.854Z,130.10
2019-03-26T23:53:38.044Z,128.60
2019-03-26T23:56:08.291Z,131.30
2019-03-26T23:58:38.538Z,127.73
